首页
METAR-TAF:

METAR-TAF

机场 :

马普托国际机场

马普托, 莫桑比克

纬度: 25-55S, 经度: 032-34E, 海拔: 39米

当前天气观测

该预报发布于1小时和23分钟前的13:00 UTC
风速8节,风向东南
温度 29°C
湿度 55%
气压 1017 hPa
能见度10公里或以上
散云层高于2000英尺

METAR: FQMA 241300Z 13008KT 9999 SCT020 29/19 Q1017

时间: 16:23 (14:23 UTC)

预报

该预报发布于4小时和23分钟前的10:00 UTC
预报有效从24日的 12点(UTC)到 25日的 18点(UTC)
风速12节,风向东转东南
能见度10公里或以上
多云层高于2000英尺
成为
从 24日的 17点(UTC)到 24日的 19点(UTC)
风速8节,风向
成为
从 25日的 00点(UTC)到 25日的 02点(UTC)
风速3节,风向多变
少量云层高于2000英尺
成为
从 25日的 06点(UTC)到 25日的 08点(UTC)
风速7节,风向

TAF: FQMA 241000Z 2412/2518 11012KT 9999 BKN020 BECMG 2417/2419 17008KT BECMG 2500/2502 VRB03KT FEW020 BECMG 2506/2508 01007KT TX35/2413Z TN21/2503Z

超过4000个机场的气象观测和天气预报(METAR&TAF报告)。

可查询的气象台以黄色和红色小点在地图上表示。

将鼠标移到小点上方,可查看气象台名称。

然后点击查看天气观测和预报。

如需切换地图:点击带黑十字的绿色按钮放大地图;点击带横线的绿色按钮缩小地图;或者点击绿色箭头查看邻近地区的地图。


METAR-TAF: